Time;durP1;ratioP1;P1;durP2;ratioP2;P2;SDS_P1;SDS_P2;PMS_P1;PMS_P2;Temp;Humidity;BMP_temperature;BMP_pressure;BME280_temperature;BME280_humidity;BME280_pressure;Samples;Min_cycle;Max_cycle;Signal;HPM_P1;HPM_P2
2022/06/24 00:00:57;;;;;;;6.30;5.13;;;;;;;;;;10251140;28;20050;-78
2022/06/24 00:05:57;;;;;;;6.57;4.97;;;;;;;;;;10236670;28;20380;-79
2022/06/24 00:11:10;;;;;;;5.65;5.00;;;;;;;;;;10246456;28;20086;-79
2022/06/24 00:16:12;;;;;;;5.82;5.22;;;;;;;;;;10246318;28;20040;-84
2022/06/24 00:21:26;;;;;;;5.20;4.80;;;;;;;;;;10252050;28;20086;-82
2022/06/24 00:26:39;;;;;;;6.80;5.15;;;;;;;;;;10249707;28;20043;-81
2022/06/24 00:31:41;;;;;;;6.07;5.15;;;;;;;;;;10262864;28;20043;-82
2022/06/24 00:36:44;;;;;;;6.40;5.28;;;;;;;;;;10268851;28;20050;-83
2022/06/24 00:41:50;;;;;;;6.72;5.57;;;;;;;;;;10275257;28;20764;-80
2022/06/24 00:46:52;;;;;;;7.55;5.72;;;;;;;;;;10248508;28;20059;-82
2022/06/24 00:51:52;;;;;;;;;;;;;;;;;;10261758;29;20131;-83
2022/06/24 00:56:56;;;;;;;7.25;5.93;;;;;;;;;;10261373;28;19913;-86
2022/06/24 01:01:58;;;;;;;6.00;5.40;;;;;;;;;;10267855;28;20067;-86
2022/06/24 01:06:59;;;;;;;7.18;5.85;;;;;;;;;;10268640;28;20051;-80
2022/06/24 01:11:59;;;;;;;10.55;6.15;;;;;;;;;;10280044;28;20054;-80
2022/06/24 01:16:59;;;;;;;7.40;5.50;;;;;;;;;;10265091;28;20090;-85
2022/06/24 01:22:01;;;;;;;6.90;6.13;;;;;;;;;;10241962;28;20343;-80
2022/06/24 01:27:02;;;;;;;8.48;5.95;;;;;;;;;;10255408;28;20303;-82
2022/06/24 01:32:05;;;;;;;6.47;5.38;;;;;;;;;;10253537;28;20123;-83
2022/06/24 01:37:06;;;;;;;6.70;5.55;;;;;;;;;;10248795;28;20058;-81
2022/06/24 01:42:07;;;;;;;6.55;5.85;;;;;;;;;;10254418;28;20138;-83
2022/06/24 01:47:11;;;;;;;6.93;6.22;;;;;;;;;;10267675;28;20058;-83
2022/06/24 01:52:12;;;;;;;6.85;5.82;;;;;;;;;;10263292;28;20223;-81
2022/06/24 01:57:12;;;;;;;7.85;6.40;;;;;;;;;;10248540;28;20098;-79
2022/06/24 02:02:12;;;;;;;7.10;5.07;;;;;;;;;;10246601;28;20063;-80
2022/06/24 02:07:14;;;;;;;7.70;4.03;;;;;;;;;;10261525;28;20044;-80
2022/06/24 02:17:39;;;;;;;5.60;3.85;;;;;;;;;;10253117;28;20055;-81
2022/06/24 02:22:39;;;;;;;7.35;3.58;;;;;;;;;;10260597;28;20122;-80
2022/06/24 02:27:40;;;;;;;5.40;2.63;;;;;;;;;;10255575;28;20142;-82
2022/06/24 02:32:52;;;;;;;3.17;2.40;;;;;;;;;;10246684;28;20142;-83
2022/06/24 02:37:55;;;;;;;4.32;2.03;;;;;;;;;;10232743;28;20054;-81
2022/06/24 02:42:56;;;;;;;3.10;1.83;;;;;;;;;;10234238;28;20852;-81
2022/06/24 02:47:58;;;;;;;2.63;1.80;;;;;;;;;;10243490;28;20310;-80
2022/06/24 02:52:59;;;;;;;4.32;1.75;;;;;;;;;;10241803;28;20296;-80
2022/06/24 02:58:01;;;;;;;3.88;1.77;;;;;;;;;;10247651;28;20049;-80
2022/06/24 03:03:02;;;;;;;3.13;1.80;;;;;;;;;;10244037;28;20083;-81
2022/06/24 03:08:04;;;;;;;2.22;1.55;;;;;;;;;;9933717;28;9383636;-84
2022/06/24 03:13:07;;;;;;;4.90;1.77;;;;;;;;;;10265726;28;20029;-83
2022/06/24 03:18:13;;;;;;;2.55;1.40;;;;;;;;;;10262483;28;20452;-84
2022/06/24 03:23:14;;;;;;;4.88;1.60;;;;;;;;;;10274598;28;20064;-82
2022/06/24 03:28:15;;;;;;;2.70;1.60;;;;;;;;;;10257780;28;20063;-82
2022/06/24 03:33:20;;;;;;;2.95;1.70;;;;;;;;;;10260268;28;20042;-84
2022/06/24 03:38:20;;;;;;;3.65;1.70;;;;;;;;;;10230652;28;20053;-83
2022/06/24 03:43:24;;;;;;;4.03;1.50;;;;;;;;;;10278199;28;20060;-85
2022/06/24 03:48:24;;;;;;;3.90;1.63;;;;;;;;;;10237002;28;20047;-81
2022/06/24 03:53:25;;;;;;;2.13;1.42;;;;;;;;;;10228588;28;20044;-81
2022/06/24 03:58:26;;;;;;;4.63;1.60;;;;;;;;;;10231213;28;20108;-82
2022/06/24 04:03:26;;;;;;;2.65;1.50;;;;;;;;;;10254173;28;20075;-85
2022/06/24 04:08:26;;;;;;;4.33;1.80;;;;;;;;;;10257857;28;20051;-81
2022/06/24 04:13:27;;;;;;;2.60;1.40;;;;;;;;;;10240704;28;20362;-79
2022/06/24 04:18:27;;;;;;;2.27;2.07;;;;;;;;;;10241932;28;20098;-81
2022/06/24 04:23:28;;;;;;;2.78;1.70;;;;;;;;;;10239929;28;20283;-79
2022/06/24 04:28:28;;;;;;;2.80;1.33;;;;;;;;;;10244947;28;20043;-80
2022/06/24 04:33:29;;;;;;;6.28;2.30;;;;;;;;;;10261598;28;20338;-82
2022/06/24 04:38:30;;;;;;;2.92;1.50;;;;;;;;;;10272481;28;20035;-79
2022/06/24 04:43:30;;;;;;;3.60;2.00;;;;;;;;;;10233046;28;20054;-75
2022/06/24 04:48:31;;;;;;;4.40;2.53;;;;;;;;;;10233657;28;20282;-74
2022/06/24 04:53:31;;;;;;;3.23;1.80;;;;;;;;;;10231593;28;20720;-74
2022/06/24 04:58:31;;;;;;;3.72;2.17;;;;;;;;;;10225334;28;20279;-75
2022/06/24 05:03:32;;;;;;;3.47;2.10;;;;;;;;;;10222696;28;20134;-75
2022/06/24 05:08:32;;;;;;;3.10;1.60;;;;;;;;;;10242325;28;20067;-75
2022/06/24 05:13:32;;;;;;;3.87;1.60;;;;;;;;;;10230491;28;20047;-75
2022/06/24 05:18:33;;;;;;;6.47;2.25;;;;;;;;;;10224434;28;20633;-79
2022/06/24 05:23:34;;;;;;;6.70;3.50;;;;;;;;;;10229353;28;20507;-78
2022/06/24 05:28:35;;;;;;;6.13;3.03;;;;;;;;;;10227497;28;20051;-78
2022/06/24 05:33:36;;;;;;;4.07;2.05;;;;;;;;;;10226061;28;20056;-77
2022/06/24 05:38:36;;;;;;;4.63;2.15;;;;;;;;;;10223564;28;20055;-78
2022/06/24 05:43:37;;;;;;;5.70;2.40;;;;;;;;;;10223112;28;20611;-77
2022/06/24 05:48:37;;;;;;;4.47;2.50;;;;;;;;;;10232325;28;20084;-75
2022/06/24 05:58:57;;;;;;;3.60;1.90;;;;;;;;;;10224335;28;20346;-75
2022/06/24 06:03:58;;;;;;;3.33;1.60;;;;;;;;;;10230481;28;20142;-75
2022/06/24 06:08:58;;;;;;;2.10;1.42;;;;;;;;;;10240449;28;20055;-75
2022/06/24 06:14:00;;;;;;;1.80;1.40;;;;;;;;;;10238080;29;20134;-76
2022/06/24 06:19:00;;;;;;;1.80;1.30;;;;;;;;;;10224204;28;20067;-77
2022/06/24 06:24:01;;;;;;;5.47;1.90;;;;;;;;;;10239695;28;20064;-76
2022/06/24 06:29:02;;;;;;;3.60;1.83;;;;;;;;;;10221964;28;20063;-75
2022/06/24 06:34:02;;;;;;;4.10;2.38;;;;;;;;;;10234497;28;20450;-75
2022/06/24 06:39:02;;;;;;;6.72;2.58;;;;;;;;;;10227050;28;20130;-75
2022/06/24 06:44:03;;;;;;;3.87;2.77;;;;;;;;;;10229532;28;20582;-76
2022/06/24 06:49:03;;;;;;;5.68;2.75;;;;;;;;;;10227623;28;20294;-76
2022/06/24 06:54:05;;;;;;;5.93;2.75;;;;;;;;;;10226707;28;20052;-76
2022/06/24 06:59:05;;;;;;;6.53;2.50;;;;;;;;;;10227413;28;20054;-77
2022/06/24 07:04:06;;;;;;;6.80;2.83;;;;;;;;;;10218770;28;20291;-77
2022/06/24 07:09:06;;;;;;;5.70;2.73;;;;;;;;;;10226007;28;20291;-76
2022/06/24 07:14:07;;;;;;;5.32;2.38;;;;;;;;;;10226427;28;20312;-78
2022/06/24 07:19:07;;;;;;;5.15;2.72;;;;;;;;;;10228242;28;20047;-76
2022/06/24 07:24:07;;;;;;;4.07;2.70;;;;;;;;;;10226458;28;20059;-76
2022/06/24 07:29:08;;;;;;;6.68;2.95;;;;;;;;;;10227714;28;20196;-76
2022/06/24 07:34:08;;;;;;;6.70;2.80;;;;;;;;;;10220114;28;20379;-76
2022/06/24 07:39:09;;;;;;;5.63;2.50;;;;;;;;;;10218915;28;20048;-76
2022/06/24 07:44:11;;;;;;;4.78;2.60;;;;;;;;;;10226091;28;20777;-76
2022/06/24 07:49:14;;;;;;;6.05;3.05;;;;;;;;;;10222630;28;20059;-78
2022/06/24 07:54:15;;;;;;;6.80;2.92;;;;;;;;;;10245015;28;20070;-76
2022/06/24 07:59:15;;;;;;;7.07;3.28;;;;;;;;;;10238674;28;20139;-76
2022/06/24 08:04:16;;;;;;;5.82;3.28;;;;;;;;;;10229837;28;20052;-75
2022/06/24 08:09:17;;;;;;;5.63;3.00;;;;;;;;;;10235109;28;20039;-76
2022/06/24 08:14:18;;;;;;;6.70;3.47;;;;;;;;;;10227798;28;20315;-78
2022/06/24 08:19:18;;;;;;;4.97;3.25;;;;;;;;;;10213067;28;20051;-77
2022/06/24 08:24:18;;;;;;;6.97;3.40;;;;;;;;;;10236274;28;20060;-76
2022/06/24 08:29:23;;;;;;;4.90;2.83;;;;;;;;;;10283062;28;20092;-78
2022/06/24 08:34:23;;;;;;;7.72;2.95;;;;;;;;;;10275363;28;20048;-76
2022/06/24 08:39:24;;;;;;;4.88;2.70;;;;;;;;;;10270338;28;20047;-77
2022/06/24 08:44:25;;;;;;;6.60;3.33;;;;;;;;;;10238393;28;20516;-77
2022/06/24 08:49:26;;;;;;;6.77;3.03;;;;;;;;;;10237753;28;20047;-75
2022/06/24 08:54:32;;;;;;;5.50;2.85;;;;;;;;;;10235847;28;20051;-78
2022/06/24 08:59:33;;;;;;;4.07;2.90;;;;;;;;;;10284240;28;20038;-78
2022/06/24 09:04:33;;;;;;;6.83;2.90;;;;;;;;;;10278452;28;20060;-78
2022/06/24 09:09:34;;;;;;;5.82;3.10;;;;;;;;;;10283024;28;20295;-77
2022/06/24 09:14:44;;;;;;;5.20;2.57;;;;;;;;;;10239052;28;20055;-75
2022/06/24 09:19:45;;;;;;;6.68;2.75;;;;;;;;;;10222213;28;20439;-76
2022/06/24 09:24:47;;;;;;;5.47;2.45;;;;;;;;;;10233253;28;20169;-76
2022/06/24 09:29:48;;;;;;;5.90;3.10;;;;;;;;;;10229947;28;20133;-77
2022/06/24 09:35:05;;;;;;;6.07;2.72;;;;;;;;;;10235842;28;20146;-75
2022/06/24 09:40:15;;;;;;;6.88;2.88;;;;;;;;;;10243231;28;20055;-77
2022/06/24 09:45:15;;;;;;;5.28;2.83;;;;;;;;;;10234409;28;20079;-77
2022/06/24 09:50:16;;;;;;;5.55;3.08;;;;;;;;;;10226611;28;20159;-78
2022/06/24 09:55:18;;;;;;;5.45;2.95;;;;;;;;;;10233170;28;20058;-76
2022/06/24 10:05:40;;;;;;;4.68;2.65;;;;;;;;;;10225283;28;20055;-77
2022/06/24 10:10:54;;;;;;;4.97;3.13;;;;;;;;;;10226452;28;20627;-76
2022/06/24 10:15:56;;;;;;;4.15;2.40;;;;;;;;;;10228061;28;20491;-73
2022/06/24 10:20:58;;;;;;;5.28;2.90;;;;;;;;;;10244271;28;20126;-75
2022/06/24 10:26:08;;;;;;;5.65;3.08;;;;;;;;;;10225562;28;20054;-74
2022/06/24 10:31:13;;;;;;;5.97;3.60;;;;;;;;;;10232698;28;20047;-75
2022/06/24 10:36:28;;;;;;;4.93;2.83;;;;;;;;;;10237764;28;20070;-76
2022/06/24 10:41:39;;;;;;;7.88;3.00;;;;;;;;;;10243916;28;20066;-77
2022/06/24 10:46:39;;;;;;;5.65;3.72;;;;;;;;;;10225098;28;20043;-75
2022/06/24 10:51:40;;;;;;;4.60;2.30;;;;;;;;;;10220608;28;20051;-76
2022/06/24 10:56:44;;;;;;;3.60;2.53;;;;;;;;;;10231919;28;20065;-75
2022/06/24 11:01:46;;;;;;;6.32;2.90;;;;;;;;;;10216089;28;20166;-75
2022/06/24 11:07:06;;;;;;;3.72;2.20;;;;;;;;;;10223939;28;20047;-76
2022/06/24 11:12:26;;;;;;;6.53;2.60;;;;;;;;;;10226446;28;20048;-74
2022/06/24 11:17:27;;;;;;;4.63;3.58;;;;;;;;;;10230488;28;20048;-74
2022/06/24 11:22:30;;;;;;;5.27;2.30;;;;;;;;;;10221437;28;20170;-75
2022/06/24 11:27:37;;;;;;;5.38;2.58;;;;;;;;;;10199050;28;20051;-74
2022/06/24 11:32:54;;;;;;;5.80;2.42;;;;;;;;;;10218186;28;20138;-74
2022/06/24 11:37:56;;;;;;;4.13;2.15;;;;;;;;;;10224035;28;20052;-78
2022/06/24 11:42:57;;;;;;;3.35;2.33;;;;;;;;;;10221598;28;20601;-74
2022/06/24 11:47:57;;;;;;;3.43;2.20;;;;;;;;;;10218237;28;20035;-76
2022/06/24 11:52:58;;;;;;;5.93;3.00;;;;;;;;;;10218008;28;20284;-75
2022/06/24 11:58:00;;;;;;;5.00;2.60;;;;;;;;;;10219943;28;20488;-75
2022/06/24 12:03:01;;;;;;;4.78;2.20;;;;;;;;;;10226323;28;20189;-77
2022/06/24 12:08:02;;;;;;;;;;;;;;;;;;10231250;28;20073;-74
2022/06/24 12:13:05;;;;;;;7.57;2.75;;;;;;;;;;10224542;28;19997;-75
2022/06/24 12:18:13;;;;;;;4.35;2.83;;;;;;;;;;10231346;28;20134;-75
2022/06/24 12:23:20;;;;;;;5.32;2.53;;;;;;;;;;10244584;28;20086;-74
2022/06/24 12:28:22;;;;;;;6.03;2.80;;;;;;;;;;10227039;28;20047;-75
2022/06/24 12:33:22;;;;;;;4.90;2.90;;;;;;;;;;10242789;28;20051;-73
2022/06/24 12:38:23;;;;;;;6.93;2.97;;;;;;;;;;10229414;28;20491;-75
2022/06/24 12:43:23;;;;;;;2.57;2.33;;;;;;;;;;10234688;28;20093;-74
2022/06/24 12:53:49;;;;;;;6.40;2.60;;;;;;;;;;10234745;28;20074;-73
2022/06/24 12:58:53;;;;;;;4.22;2.42;;;;;;;;;;10242224;28;20483;-77
2022/06/24 13:03:53;;;;;;;4.03;2.27;;;;;;;;;;10246432;28;20051;-75
2022/06/24 13:08:54;;;;;;;5.43;2.67;;;;;;;;;;10219831;28;20058;-74
2022/06/24 13:13:55;;;;;;;5.40;2.73;;;;;;;;;;10235689;28;20901;-74
2022/06/24 13:18:55;;;;;;;3.40;2.70;;;;;;;;;;10237057;28;20047;-75
2022/06/24 13:23:55;;;;;;;6.03;2.80;;;;;;;;;;10237316;28;20059;-76
2022/06/24 13:28:56;;;;;;;4.87;2.47;;;;;;;;;;10233585;28;20102;-74
2022/06/24 13:34:00;;;;;;;4.90;3.00;;;;;;;;;;10238158;28;20043;-75
2022/06/24 13:39:01;;;;;;;4.72;3.10;;;;;;;;;;10229583;28;20043;-75
2022/06/24 13:44:02;;;;;;;5.57;3.17;;;;;;;;;;10238294;28;20058;-73
2022/06/24 13:49:03;;;;;;;6.97;3.85;;;;;;;;;;10234880;28;20275;-73
2022/06/24 13:54:03;;;;;;;5.90;3.90;;;;;;;;;;10231218;28;20055;-73
2022/06/24 13:59:05;;;;;;;9.32;4.07;;;;;;;;;;10235233;28;20055;-76
2022/06/24 14:04:05;;;;;;;6.93;4.23;;;;;;;;;;10233593;28;20114;-77
2022/06/24 14:09:05;;;;;;;7.37;5.07;;;;;;;;;;10239010;28;20102;-78
2022/06/24 14:14:06;;;;;;;7.93;4.40;;;;;;;;;;10237427;28;20279;-75
2022/06/24 14:19:09;;;;;;;9.87;4.47;;;;;;;;;;10243756;28;20114;-75
2022/06/24 14:29:29;;;;;;;4.68;3.00;;;;;;;;;;10234687;28;20051;-76
2022/06/24 14:34:32;;;;;;;4.60;3.30;;;;;;;;;;10233155;28;20047;-76
2022/06/24 14:44:52;;;;;;;11.55;6.53;;;;;;;;;;10224044;28;20135;-77
2022/06/24 14:49:52;;;;;;;21.23;6.07;;;;;;;;;;10242390;28;20067;-81
2022/06/24 14:54:52;;;;;;;6.37;3.77;;;;;;;;;;10259550;28;20043;-80
2022/06/24 14:59:56;;;;;;;6.68;4.57;;;;;;;;;;10255758;28;20305;-84
2022/06/24 15:04:56;;;;;;;7.28;4.70;;;;;;;;;;10258372;28;20059;-84
2022/06/24 15:09:57;;;;;;;8.05;4.88;;;;;;;;;;10249967;28;20043;-83
2022/06/24 15:14:57;;;;;;;7.95;5.40;;;;;;;;;;10274219;28;20458;-83
2022/06/24 15:20:01;;;;;;;11.43;7.35;;;;;;;;;;10257887;28;20043;-80
2022/06/24 15:25:07;;;;;;;8.05;6.43;;;;;;;;;;10261402;28;20067;-81
2022/06/24 15:30:30;;;;;;;9.02;6.35;;;;;;;;;;10261028;28;20019;-82
2022/06/24 15:35:38;;;;;;;6.15;4.13;;;;;;;;;;10248168;28;20043;-82
2022/06/24 15:40:48;;;;;;;8.13;6.15;;;;;;;;;;10261619;28;20106;-84
2022/06/24 15:46:09;;;;;;;6.15;4.38;;;;;;;;;;10263431;28;20055;-84
2022/06/24 15:51:47;;;;;;;9.82;6.00;;;;;;;;;;10291332;28;20031;-82
2022/06/24 15:56:49;;;;;;;7.88;5.63;;;;;;;;;;10277485;28;20043;-85
2022/06/24 16:02:11;;;;;;;8.88;5.47;;;;;;;;;;10265312;28;20030;-82
2022/06/24 16:07:27;;;;;;;8.63;5.90;;;;;;;;;;10288935;28;20047;-82
2022/06/24 16:12:31;;;;;;;8.63;5.57;;;;;;;;;;10316005;28;20064;-85
2022/06/24 16:17:51;;;;;;;9.82;8.05;;;;;;;;;;10336376;28;20114;-81
2022/06/24 16:28:51;;;;;;;13.93;7.93;;;;;;;;;;10335764;28;20042;-83
2022/06/24 16:34:11;;;;;;;10.05;7.68;;;;;;;;;;10261449;28;20474;-84
2022/06/24 16:39:21;;;;;;;7.30;5.93;;;;;;;;;;10249800;28;20043;-83
2022/06/24 16:45:01;;;;;;;;;;;;;;;;;;;;;
2022/06/24 16:50:23;;;;;;;8.85;5.85;;;;;;;;;;10262347;28;20494;-83
2022/06/24 16:55:30;;;;;;;9.18;7.20;;;;;;;;;;10230126;28;20131;-86
2022/06/24 17:00:59;;;;;;;10.57;8.32;;;;;;;;;;10235996;28;20070;-87
2022/06/24 17:06:13;;;;;;;13.27;9.95;;;;;;;;;;10239560;28;20714;-82
2022/06/24 17:11:14;;;;;;;14.10;10.15;;;;;;;;;;10270403;28;20061;-81
2022/06/24 17:16:28;;;;;;;16.30;11.00;;;;;;;;;;10259022;28;20047;-83
2022/06/24 17:21:29;;;;;;;18.33;12.00;;;;;;;;;;10267963;28;20046;-82
2022/06/24 17:26:39;;;;;;;13.65;10.95;;;;;;;;;;10270513;28;20196;-83
2022/06/24 17:31:49;;;;;;;11.20;8.55;;;;;;;;;;10276236;28;20058;-83
2022/06/24 17:37:11;;;;;;;8.47;7.30;;;;;;;;;;10264501;28;20069;-84
2022/06/24 17:42:30;;;;;;;7.57;6.60;;;;;;;;;;10283963;28;20054;-83
2022/06/24 17:47:31;;;;;;;10.48;8.90;;;;;;;;;;10305678;28;20035;-82
2022/06/24 17:52:33;;;;;;;7.80;7.00;;;;;;;;;;10318708;28;20053;-81
2022/06/24 17:57:58;;;;;;;9.10;7.35;;;;;;;;;;10296968;28;20305;-82
2022/06/24 18:08:18;;;;;;;9.45;8.48;;;;;;;;;;10228130;28;20050;-82
2022/06/24 18:13:19;;;;;;;9.00;7.30;;;;;;;;;;10251288;28;20038;-82
2022/06/24 18:18:42;;;;;;;13.65;11.32;;;;;;;;;;10262472;28;20076;-81
2022/06/24 18:24:09;;;;;;;9.10;8.00;;;;;;;;;;10239460;28;20148;-84
2022/06/24 18:29:18;;;;;;;8.98;8.02;;;;;;;;;;10222650;28;20230;-81
2022/06/24 18:34:28;;;;;;;14.65;9.80;;;;;;;;;;10264146;28;20075;-84
2022/06/24 18:39:52;;;;;;;12.63;9.68;;;;;;;;;;10218486;28;20048;-83
2022/06/24 18:45:00;;;;;;;16.73;10.13;;;;;;;;;;10259170;28;20426;-83
2022/06/24 18:50:02;;;;;;;12.88;9.50;;;;;;;;;;10292925;28;20047;-80
2022/06/24 18:55:12;;;;;;;10.15;8.75;;;;;;;;;;10211632;28;20046;-82
2022/06/24 19:00:39;;;;;;;10.13;8.13;;;;;;;;;;10284698;28;20058;-82
2022/06/24 19:05:41;;;;;;;8.80;7.88;;;;;;;;;;10274746;28;20058;-83
2022/06/24 19:10:41;;;;;;;11.82;8.82;;;;;;;;;;10315671;28;20030;-84
2022/06/24 19:15:51;;;;;;;9.73;7.50;;;;;;;;;;10303463;28;20038;-85
2022/06/24 19:20:52;;;;;;;9.05;8.15;;;;;;;;;;10293039;28;20030;-81
2022/06/24 19:26:02;;;;;;;13.85;8.73;;;;;;;;;;10304176;28;20126;-82
2022/06/24 19:36:28;;;;;;;16.15;10.68;;;;;;;;;;10263363;28;20055;-81
2022/06/24 19:41:29;;;;;;;11.52;9.38;;;;;;;;;;10278144;28;20061;-83
2022/06/24 19:46:36;;;;;;;11.95;8.85;;;;;;;;;;10281823;28;20434;-77
2022/06/24 19:51:37;;;;;;;10.15;8.90;;;;;;;;;;10266927;28;20127;-79
2022/06/24 19:56:38;;;;;;;10.50;9.23;;;;;;;;;;10257998;28;20055;-81
2022/06/24 20:07:12;;;;;;;11.15;8.30;;;;;;;;;;10276933;28;20497;-78
2022/06/24 20:12:13;;;;;;;11.95;9.15;;;;;;;;;;10268824;28;20058;-79
2022/06/24 20:17:15;;;;;;;8.55;6.78;;;;;;;;;;10268704;28;20047;-79
2022/06/24 20:22:16;;;;;;;7.43;6.07;;;;;;;;;;10269154;28;20141;-81
2022/06/24 20:27:17;;;;;;;9.13;5.90;;;;;;;;;;10286550;28;20075;-78
2022/06/24 20:32:20;;;;;;;5.13;4.63;;;;;;;;;;10305509;28;20395;-80
2022/06/24 20:37:20;;;;;;;7.80;4.65;;;;;;;;;;10310178;28;20055;-79
2022/06/24 20:42:22;;;;;;;4.97;3.33;;;;;;;;;;10267599;28;20125;-80
2022/06/24 20:47:24;;;;;;;3.78;2.60;;;;;;;;;;10299791;28;20084;-82
2022/06/24 20:52:28;;;;;;;3.00;2.63;;;;;;;;;;10305387;28;20071;-81
2022/06/24 20:57:28;;;;;;;8.05;3.75;;;;;;;;;;10285556;28;20039;-80
2022/06/24 21:02:30;;;;;;;4.78;3.10;;;;;;;;;;10278110;28;20608;-80
2022/06/24 21:07:31;;;;;;;4.63;3.80;;;;;;;;;;10286471;28;20703;-79
2022/06/24 21:12:32;;;;;;;4.28;2.83;;;;;;;;;;10285311;28;20078;-80
2022/06/24 21:17:33;;;;;;;3.30;2.80;;;;;;;;;;10287008;28;20058;-79
2022/06/24 21:22:35;;;;;;;3.83;2.67;;;;;;;;;;10268398;28;20067;-79
2022/06/24 21:27:36;;;;;;;3.40;3.03;;;;;;;;;;10282335;28;20160;-80
2022/06/24 21:32:37;;;;;;;3.03;2.70;;;;;;;;;;10292253;28;20047;-81
2022/06/24 21:37:38;;;;;;;4.47;2.92;;;;;;;;;;10298997;28;20046;-82
2022/06/24 21:42:44;;;;;;;2.65;2.40;;;;;;;;;;10298820;28;20047;-82
2022/06/24 21:47:49;;;;;;;4.03;2.85;;;;;;;;;;10289015;28;20035;-81
2022/06/24 21:53:02;;;;;;;5.55;2.97;;;;;;;;;;10292868;28;20031;-80
2022/06/24 21:58:03;;;;;;;3.03;2.70;;;;;;;;;;10301378;28;20045;-82
2022/06/24 22:03:04;;;;;;;3.47;3.17;;;;;;;;;;10315904;28;20059;-80
2022/06/24 22:08:14;;;;;;;3.38;3.08;;;;;;;;;;10298409;28;20070;-81
2022/06/24 22:13:16;;;;;;;3.30;3.00;;;;;;;;;;10296866;28;20207;-80
2022/06/24 22:18:24;;;;;;;3.55;2.35;;;;;;;;;;10293543;28;20046;-80
2022/06/24 22:23:30;;;;;;;2.50;2.30;;;;;;;;;;10264233;28;20054;-80
2022/06/24 22:28:32;;;;;;;2.42;2.22;;;;;;;;;;10289492;28;20126;-80
2022/06/24 22:33:37;;;;;;;2.45;2.25;;;;;;;;;;10255716;28;20051;-80
2022/06/24 22:38:46;;;;;;;2.58;2.38;;;;;;;;;;10291383;28;20051;-82
2022/06/24 22:43:51;;;;;;;3.05;2.15;;;;;;;;;;10311409;28;20078;-80
2022/06/24 22:48:52;;;;;;;6.57;3.08;;;;;;;;;;10311156;28;20043;-83
2022/06/24 22:53:55;;;;;;;3.50;3.20;;;;;;;;;;10311522;28;20055;-80
2022/06/24 22:58:58;;;;;;;3.57;3.33;;;;;;;;;;10285793;28;20467;-79
2022/06/24 23:04:01;;;;;;;4.00;3.60;;;;;;;;;;10297766;28;20070;-80
2022/06/24 23:09:02;;;;;;;5.05;3.13;;;;;;;;;;10287365;28;20079;-79
2022/06/24 23:14:03;;;;;;;3.25;2.90;;;;;;;;;;10290257;28;20127;-82
2022/06/24 23:19:05;;;;;;;3.50;2.90;;;;;;;;;;10281370;28;20135;-80
2022/06/24 23:24:06;;;;;;;3.38;3.00;;;;;;;;;;10275233;28;20063;-83
2022/06/24 23:29:07;;;;;;;3.10;2.80;;;;;;;;;;10276306;28;20066;-82
2022/06/24 23:34:08;;;;;;;3.95;3.30;;;;;;;;;;10274394;28;20665;-81
2022/06/24 23:39:10;;;;;;;3.70;3.40;;;;;;;;;;10284871;28;20042;-79
2022/06/24 23:44:11;;;;;;;3.83;3.10;;;;;;;;;;10280331;28;20356;-79
2022/06/24 23:54:34;;;;;;;5.25;3.38;;;;;;;;;;10271476;28;20070;-79
2022/06/24 23:59:35;;;;;;;3.88;3.58;;;;;;;;;;10280071;28;20051;-83
